sensor_id;sensor_type;location;lat;lon;timestamp;temperature;humidity
51950;DHT22;37974;53.218;6.640;2023-07-20T00:00:14;16.00;99.90
51950;DHT22;37974;53.218;6.640;2023-07-20T00:02:40;16.00;99.90
51950;DHT22;37974;53.218;6.640;2023-07-20T00:05:20;16.00;99.90
51950;DHT22;37974;53.218;6.640;2023-07-20T00:08:16;16.10;99.90
51950;DHT22;37974;53.218;6.640;2023-07-20T00:10:42;16.00;99.90
51950;DHT22;37974;53.218;6.640;2023-07-20T00:13:09;16.00;99.90
51950;DHT22;37974;53.218;6.640;2023-07-20T00:15:37;15.90;99.90
51950;DHT22;37974;53.218;6.640;2023-07-20T00:18:04;15.90;99.90
51950;DHT22;37974;53.218;6.640;2023-07-20T00:20:30;15.90;99.90
51950;DHT22;37974;53.218;6.640;2023-07-20T00:23:02;15.90;99.90
51950;DHT22;37974;53.218;6.640;2023-07-20T00:25:28;15.90;99.90
51950;DHT22;37974;53.218;6.640;2023-07-20T00:27:53;15.90;99.90
51950;DHT22;37974;53.218;6.640;2023-07-20T00:30:22;15.80;99.90
51950;DHT22;37974;53.218;6.640;2023-07-20T00:32:57;15.80;99.90
51950;DHT22;37974;53.218;6.640;2023-07-20T00:35:39;15.80;99.90
51950;DHT22;37974;53.218;6.640;2023-07-20T00:38:05;15.80;99.90
51950;DHT22;37974;53.218;6.640;2023-07-20T00:40:41;15.70;99.90
51950;DHT22;37974;53.218;6.640;2023-07-20T00:43:09;15.70;99.90
51950;DHT22;37974;53.218;6.640;2023-07-20T00:45:56;15.70;99.90
51950;DHT22;37974;53.218;6.640;2023-07-20T00:48:29;15.70;99.90
51950;DHT22;37974;53.218;6.640;2023-07-20T00:51:04;15.60;99.90
51950;DHT22;37974;53.218;6.640;2023-07-20T00:53:30;15.60;99.90
51950;DHT22;37974;53.218;6.640;2023-07-20T00:55:56;15.50;99.90
51950;DHT22;37974;53.218;6.640;2023-07-20T00:58:23;15.50;99.90
51950;DHT22;37974;53.218;6.640;2023-07-20T01:00:57;15.40;99.90
51950;DHT22;37974;53.218;6.640;2023-07-20T01:03:22;15.40;99.90
51950;DHT22;37974;53.218;6.640;2023-07-20T01:06:13;15.40;99.90
51950;DHT22;37974;53.218;6.640;2023-07-20T01:11:16;15.20;99.90
51950;DHT22;37974;53.218;6.640;2023-07-20T01:13:43;15.10;99.90
51950;DHT22;37974;53.218;6.640;2023-07-20T01:16:09;15.10;99.90
51950;DHT22;37974;53.218;6.640;2023-07-20T01:18:35;15.00;99.90
51950;DHT22;37974;53.218;6.640;2023-07-20T01:21:34;15.00;99.90
51950;DHT22;37974;53.218;6.640;2023-07-20T01:24:32;14.90;99.90
51950;DHT22;37974;53.218;6.640;2023-07-20T01:33:39;14.70;99.90
51950;DHT22;37974;53.218;6.640;2023-07-20T01:36:35;14.60;99.90
51950;DHT22;37974;53.218;6.640;2023-07-20T01:39:08;14.50;99.90
51950;DHT22;37974;53.218;6.640;2023-07-20T01:41:34;14.50;99.90
51950;DHT22;37974;53.218;6.640;2023-07-20T01:44:00;14.50;99.90
51950;DHT22;37974;53.218;6.640;2023-07-20T01:46:26;14.40;99.90
51950;DHT22;37974;53.218;6.640;2023-07-20T01:48:55;14.40;99.90
51950;DHT22;37974;53.218;6.640;2023-07-20T01:51:28;14.40;99.90
51950;DHT22;37974;53.218;6.640;2023-07-20T01:53:56;14.30;99.90
51950;DHT22;37974;53.218;6.640;2023-07-20T01:56:21;14.20;99.90
51950;DHT22;37974;53.218;6.640;2023-07-20T01:58:47;14.20;99.90
51950;DHT22;37974;53.218;6.640;2023-07-20T02:01:13;14.10;99.90
51950;DHT22;37974;53.218;6.640;2023-07-20T02:03:41;14.00;99.90
51950;DHT22;37974;53.218;6.640;2023-07-20T02:06:07;14.00;99.90
51950;DHT22;37974;53.218;6.640;2023-07-20T02:08:36;14.00;99.90
51950;DHT22;37974;53.218;6.640;2023-07-20T02:11:07;14.00;99.90
51950;DHT22;37974;53.218;6.640;2023-07-20T02:13:38;13.90;99.90
51950;DHT22;37974;53.218;6.640;2023-07-20T02:16:04;13.90;99.90
51950;DHT22;37974;53.218;6.640;2023-07-20T02:18:33;13.90;99.90
51950;DHT22;37974;53.218;6.640;2023-07-20T02:21:08;13.90;99.90
51950;DHT22;37974;53.218;6.640;2023-07-20T02:23:43;13.90;99.90
51950;DHT22;37974;53.218;6.640;2023-07-20T02:26:15;13.90;99.90
51950;DHT22;37974;53.218;6.640;2023-07-20T02:28:41;13.90;99.90
51950;DHT22;37974;53.218;6.640;2023-07-20T02:31:07;13.90;99.90
51950;DHT22;37974;53.218;6.640;2023-07-20T02:33:33;13.80;99.90
51950;DHT22;37974;53.218;6.640;2023-07-20T02:36:03;13.80;99.90
51950;DHT22;37974;53.218;6.640;2023-07-20T02:38:38;13.80;99.90
51950;DHT22;37974;53.218;6.640;2023-07-20T02:41:10;13.70;99.90
51950;DHT22;37974;53.218;6.640;2023-07-20T02:43:39;13.60;99.90
51950;DHT22;37974;53.218;6.640;2023-07-20T02:46:08;13.60;99.90
51950;DHT22;37974;53.218;6.640;2023-07-20T02:48:39;13.50;99.90
51950;DHT22;37974;53.218;6.640;2023-07-20T02:51:17;13.40;99.90
51950;DHT22;37974;53.218;6.640;2023-07-20T02:53:43;13.40;99.90
51950;DHT22;37974;53.218;6.640;2023-07-20T02:56:11;13.40;99.90
51950;DHT22;37974;53.218;6.640;2023-07-20T02:58:41;13.30;99.90
51950;DHT22;37974;53.218;6.640;2023-07-20T03:01:38;13.30;99.90
51950;DHT22;37974;53.218;6.640;2023-07-20T03:04:04;13.20;99.90
51950;DHT22;37974;53.218;6.640;2023-07-20T03:06:33;13.20;99.90
51950;DHT22;37974;53.218;6.640;2023-07-20T03:09:04;13.10;99.90
51950;DHT22;37974;53.218;6.640;2023-07-20T03:11:35;13.10;99.90
51950;DHT22;37974;53.218;6.640;2023-07-20T03:14:09;13.10;99.90
51950;DHT22;37974;53.218;6.640;2023-07-20T03:16:51;13.00;99.90
51950;DHT22;37974;53.218;6.640;2023-07-20T03:19:45;12.90;99.90
51950;DHT22;37974;53.218;6.640;2023-07-20T03:22:20;12.90;99.90
51950;DHT22;37974;53.218;6.640;2023-07-20T03:24:47;12.80;99.90
51950;DHT22;37974;53.218;6.640;2023-07-20T03:27:19;12.70;99.90
51950;DHT22;37974;53.218;6.640;2023-07-20T03:30:00;12.60;99.90
51950;DHT22;37974;53.218;6.640;2023-07-20T03:32:29;12.50;99.90
51950;DHT22;37974;53.218;6.640;2023-07-20T03:35:06;12.40;99.90
51950;DHT22;37974;53.218;6.640;2023-07-20T03:37:43;12.40;99.90
51950;DHT22;37974;53.218;6.640;2023-07-20T03:40:57;12.40;99.90
51950;DHT22;37974;53.218;6.640;2023-07-20T03:43:32;12.30;99.90
51950;DHT22;37974;53.218;6.640;2023-07-20T03:46:06;12.30;99.90
51950;DHT22;37974;53.218;6.640;2023-07-20T03:51:34;12.30;99.90
51950;DHT22;37974;53.218;6.640;2023-07-20T03:54:05;12.30;99.90
51950;DHT22;37974;53.218;6.640;2023-07-20T03:56:34;12.30;99.90
51950;DHT22;37974;53.218;6.640;2023-07-20T03:59:05;12.30;99.90
51950;DHT22;37974;53.218;6.640;2023-07-20T04:01:34;12.20;99.90
51950;DHT22;37974;53.218;6.640;2023-07-20T04:04:43;12.30;99.90
51950;DHT22;37974;53.218;6.640;2023-07-20T04:07:09;12.30;99.90
51950;DHT22;37974;53.218;6.640;2023-07-20T04:09:40;12.20;99.90
51950;DHT22;37974;53.218;6.640;2023-07-20T04:27:56;12.40;99.90
51950;DHT22;37974;53.218;6.640;2023-07-20T04:30:55;12.50;99.90
51950;DHT22;37974;53.218;6.640;2023-07-20T04:33:30;12.60;99.90
51950;DHT22;37974;53.218;6.640;2023-07-20T04:35:58;12.60;99.90
51950;DHT22;37974;53.218;6.640;2023-07-20T04:38:30;12.80;99.90
51950;DHT22;37974;53.218;6.640;2023-07-20T05:22:33;14.60;99.90
51950;DHT22;37974;53.218;6.640;2023-07-20T05:25:25;14.80;99.90
51950;DHT22;37974;53.218;6.640;2023-07-20T05:33:22;15.10;99.90
51950;DHT22;37974;53.218;6.640;2023-07-20T05:36:04;15.20;99.90
51950;DHT22;37974;53.218;6.640;2023-07-20T05:38:48;15.30;99.90
51950;DHT22;37974;53.218;6.640;2023-07-20T05:44:34;15.40;99.90
51950;DHT22;37974;53.218;6.640;2023-07-20T05:50:51;15.60;99.90
51950;DHT22;37974;53.218;6.640;2023-07-20T05:53:38;15.60;99.90
51950;DHT22;37974;53.218;6.640;2023-07-20T05:56:16;15.70;99.90
51950;DHT22;37974;53.218;6.640;2023-07-20T05:58:57;15.80;99.90
51950;DHT22;37974;53.218;6.640;2023-07-20T06:01:44;15.90;99.90
51950;DHT22;37974;53.218;6.640;2023-07-20T06:04:13;16.00;99.90
51950;DHT22;37974;53.218;6.640;2023-07-20T06:06:39;16.00;99.90
51950;DHT22;37974;53.218;6.640;2023-07-20T06:09:04;16.10;99.90
51950;DHT22;37974;53.218;6.640;2023-07-20T06:11:45;16.20;99.90
51950;DHT22;37974;53.218;6.640;2023-07-20T06:14:23;16.20;99.90
51950;DHT22;37974;53.218;6.640;2023-07-20T06:17:04;16.40;99.90
51950;DHT22;37974;53.218;6.640;2023-07-20T06:19:47;16.40;99.90
51950;DHT22;37974;53.218;6.640;2023-07-20T06:22:16;16.50;99.90
51950;DHT22;37974;53.218;6.640;2023-07-20T06:24:44;16.60;99.90
51950;DHT22;37974;53.218;6.640;2023-07-20T06:27:12;16.70;99.90
51950;DHT22;37974;53.218;6.640;2023-07-20T06:29:38;16.80;99.90
51950;DHT22;37974;53.218;6.640;2023-07-20T06:32:14;16.80;99.90
51950;DHT22;37974;53.218;6.640;2023-07-20T06:35:00;16.90;99.90
51950;DHT22;37974;53.218;6.640;2023-07-20T06:37:26;16.90;99.90
51950;DHT22;37974;53.218;6.640;2023-07-20T06:39:52;17.00;99.90
51950;DHT22;37974;53.218;6.640;2023-07-20T06:42:18;17.00;99.90
51950;DHT22;37974;53.218;6.640;2023-07-20T06:44:44;17.10;99.90
51950;DHT22;37974;53.218;6.640;2023-07-20T06:47:09;17.20;99.90
51950;DHT22;37974;53.218;6.640;2023-07-20T06:49:50;17.30;99.90
51950;DHT22;37974;53.218;6.640;2023-07-20T06:52:16;17.30;99.90
51950;DHT22;37974;53.218;6.640;2023-07-20T06:54:42;17.40;99.90
51950;DHT22;37974;53.218;6.640;2023-07-20T06:57:08;17.50;99.90
51950;DHT22;37974;53.218;6.640;2023-07-20T06:59:39;17.60;99.90
51950;DHT22;37974;53.218;6.640;2023-07-20T07:02:41;17.70;99.90
51950;DHT22;37974;53.218;6.640;2023-07-20T07:05:13;17.70;99.90
51950;DHT22;37974;53.218;6.640;2023-07-20T07:11:32;17.80;99.90
51950;DHT22;37974;53.218;6.640;2023-07-20T07:20:27;18.10;99.90
51950;DHT22;37974;53.218;6.640;2023-07-20T07:23:46;18.20;99.90
51950;DHT22;37974;53.218;6.640;2023-07-20T07:30:12;18.30;99.90
51950;DHT22;37974;53.218;6.640;2023-07-20T07:35:33;18.30;99.90
51950;DHT22;37974;53.218;6.640;2023-07-20T07:38:29;18.50;99.90
51950;DHT22;37974;53.218;6.640;2023-07-20T07:44:47;18.80;99.90
51950;DHT22;37974;53.218;6.640;2023-07-20T07:47:28;18.80;99.90
51950;DHT22;37974;53.218;6.640;2023-07-20T07:53:45;18.80;99.90
51950;DHT22;37974;53.218;6.640;2023-07-20T08:04:45;18.10;99.90
51950;DHT22;37974;53.218;6.640;2023-07-20T08:07:10;17.80;99.90
51950;DHT22;37974;53.218;6.640;2023-07-20T08:09:36;17.80;99.90
51950;DHT22;37974;53.218;6.640;2023-07-20T08:12:02;17.90;99.90
51950;DHT22;37974;53.218;6.640;2023-07-20T08:14:29;18.10;99.90
51950;DHT22;37974;53.218;6.640;2023-07-20T08:16:55;18.40;99.90
51950;DHT22;37974;53.218;6.640;2023-07-20T08:19:20;18.70;99.90
51950;DHT22;37974;53.218;6.640;2023-07-20T08:21:46;19.00;99.90
51950;DHT22;37974;53.218;6.640;2023-07-20T08:24:12;19.20;99.90
51950;DHT22;37974;53.218;6.640;2023-07-20T08:26:37;19.20;99.90
51950;DHT22;37974;53.218;6.640;2023-07-20T08:29:03;19.10;99.90
51950;DHT22;37974;53.218;6.640;2023-07-20T08:31:32;19.10;99.90
51950;DHT22;37974;53.218;6.640;2023-07-20T08:33:58;19.10;99.90
51950;DHT22;37974;53.218;6.640;2023-07-20T08:36:24;19.20;99.90
51950;DHT22;37974;53.218;6.640;2023-07-20T08:38:50;19.30;99.90
51950;DHT22;37974;53.218;6.640;2023-07-20T08:41:16;19.40;99.90
51950;DHT22;37974;53.218;6.640;2023-07-20T08:43:42;19.60;99.90
51950;DHT22;37974;53.218;6.640;2023-07-20T08:46:11;19.70;99.90
51950;DHT22;37974;53.218;6.640;2023-07-20T08:48:40;19.60;99.90
51950;DHT22;37974;53.218;6.640;2023-07-20T08:51:06;19.40;99.90
51950;DHT22;37974;53.218;6.640;2023-07-20T08:53:32;19.40;99.90
51950;DHT22;37974;53.218;6.640;2023-07-20T08:55:59;19.30;99.90
51950;DHT22;37974;53.218;6.640;2023-07-20T08:58:27;19.40;99.90
51950;DHT22;37974;53.218;6.640;2023-07-20T09:00:54;19.60;99.90
51950;DHT22;37974;53.218;6.640;2023-07-20T09:03:21;19.90;99.90
51950;DHT22;37974;53.218;6.640;2023-07-20T09:05:47;20.10;99.90
51950;DHT22;37974;53.218;6.640;2023-07-20T09:08:12;20.10;99.90
51950;DHT22;37974;53.218;6.640;2023-07-20T09:10:39;20.10;99.90
51950;DHT22;37974;53.218;6.640;2023-07-20T09:13:04;19.80;99.90
51950;DHT22;37974;53.218;6.640;2023-07-20T09:15:39;19.60;99.90
51950;DHT22;37974;53.218;6.640;2023-07-20T09:18:11;19.40;99.90
51950;DHT22;37974;53.218;6.640;2023-07-20T09:20:37;19.60;99.90
51950;DHT22;37974;53.218;6.640;2023-07-20T09:23:05;19.80;99.90
51950;DHT22;37974;53.218;6.640;2023-07-20T09:25:32;20.00;99.90
51950;DHT22;37974;53.218;6.640;2023-07-20T09:28:02;20.00;99.90
51950;DHT22;37974;53.218;6.640;2023-07-20T09:30:28;19.90;99.90
51950;DHT22;37974;53.218;6.640;2023-07-20T09:32:54;19.60;99.90
51950;DHT22;37974;53.218;6.640;2023-07-20T09:35:21;19.60;99.90
51950;DHT22;37974;53.218;6.640;2023-07-20T09:37:53;19.90;99.90
51950;DHT22;37974;53.218;6.640;2023-07-20T09:40:20;20.20;99.90
51950;DHT22;37974;53.218;6.640;2023-07-20T09:42:46;20.60;99.90
51950;DHT22;37974;53.218;6.640;2023-07-20T09:45:13;20.70;99.90
51950;DHT22;37974;53.218;6.640;2023-07-20T09:47:39;20.50;99.90
51950;DHT22;37974;53.218;6.640;2023-07-20T09:50:07;20.40;99.90
51950;DHT22;37974;53.218;6.640;2023-07-20T09:52:40;20.10;99.90
51950;DHT22;37974;53.218;6.640;2023-07-20T09:55:09;19.90;99.90
51950;DHT22;37974;53.218;6.640;2023-07-20T09:57:36;19.80;99.90
51950;DHT22;37974;53.218;6.640;2023-07-20T10:00:04;20.10;99.90
51950;DHT22;37974;53.218;6.640;2023-07-20T10:02:43;20.40;99.90
51950;DHT22;37974;53.218;6.640;2023-07-20T10:05:14;20.70;99.90
51950;DHT22;37974;53.218;6.640;2023-07-20T10:07:52;20.80;99.90
51950;DHT22;37974;53.218;6.640;2023-07-20T10:10:19;20.70;99.90
51950;DHT22;37974;53.218;6.640;2023-07-20T10:12:47;20.60;99.90
51950;DHT22;37974;53.218;6.640;2023-07-20T10:15:23;20.40;99.90
51950;DHT22;37974;53.218;6.640;2023-07-20T10:18:02;20.30;99.90
51950;DHT22;37974;53.218;6.640;2023-07-20T10:20:29;20.40;99.90
51950;DHT22;37974;53.218;6.640;2023-07-20T10:22:56;20.70;99.90
51950;DHT22;37974;53.218;6.640;2023-07-20T10:25:23;21.10;99.90
51950;DHT22;37974;53.218;6.640;2023-07-20T10:27:49;21.40;99.90
51950;DHT22;37974;53.218;6.640;2023-07-20T10:30:17;21.60;99.90
51950;DHT22;37974;53.218;6.640;2023-07-20T10:32:43;21.50;99.90
51950;DHT22;37974;53.218;6.640;2023-07-20T10:35:17;21.40;99.90
51950;DHT22;37974;53.218;6.640;2023-07-20T10:38:00;21.40;99.90
51950;DHT22;37974;53.218;6.640;2023-07-20T10:40:33;21.20;99.90
51950;DHT22;37974;53.218;6.640;2023-07-20T10:43:05;20.80;99.90
51950;DHT22;37974;53.218;6.640;2023-07-20T10:45:42;20.60;99.90
51950;DHT22;37974;53.218;6.640;2023-07-20T10:48:15;20.60;99.90
51950;DHT22;37974;53.218;6.640;2023-07-20T10:50:42;20.60;99.90
51950;DHT22;37974;53.218;6.640;2023-07-20T10:53:16;20.70;99.90
51950;DHT22;37974;53.218;6.640;2023-07-20T10:55:42;20.50;99.90
51950;DHT22;37974;53.218;6.640;2023-07-20T10:58:14;20.40;99.90
51950;DHT22;37974;53.218;6.640;2023-07-20T11:00:57;20.50;99.90
51950;DHT22;37974;53.218;6.640;2023-07-20T11:03:27;20.80;99.90
51950;DHT22;37974;53.218;6.640;2023-07-20T11:05:53;20.80;99.90
51950;DHT22;37974;53.218;6.640;2023-07-20T11:08:39;20.60;99.90
51950;DHT22;37974;53.218;6.640;2023-07-20T11:11:25;20.50;99.90
51950;DHT22;37974;53.218;6.640;2023-07-20T11:13:58;20.30;99.90
51950;DHT22;37974;53.218;6.640;2023-07-20T11:16:44;20.10;99.90
51950;DHT22;37974;53.218;6.640;2023-07-20T11:19:22;20.30;99.90
51950;DHT22;37974;53.218;6.640;2023-07-20T11:21:57;20.70;99.90
51950;DHT22;37974;53.218;6.640;2023-07-20T11:24:24;20.90;99.90
51950;DHT22;37974;53.218;6.640;2023-07-20T11:26:53;21.10;99.90
51950;DHT22;37974;53.218;6.640;2023-07-20T11:29:22;21.30;99.90
51950;DHT22;37974;53.218;6.640;2023-07-20T11:31:49;21.30;99.90
51950;DHT22;37974;53.218;6.640;2023-07-20T11:34:22;21.50;99.90
51950;DHT22;37974;53.218;6.640;2023-07-20T11:36:48;21.60;99.60
51950;DHT22;37974;53.218;6.640;2023-07-20T11:39:16;21.50;98.70
51950;DHT22;37974;53.218;6.640;2023-07-20T11:41:55;21.50;99.90
51950;DHT22;37974;53.218;6.640;2023-07-20T11:44:24;21.40;98.90
51950;DHT22;37974;53.218;6.640;2023-07-20T11:47:07;21.20;99.80
51950;DHT22;37974;53.218;6.640;2023-07-20T11:49:43;21.00;99.60
51950;DHT22;37974;53.218;6.640;2023-07-20T11:52:10;21.10;99.90
51950;DHT22;37974;53.218;6.640;2023-07-20T11:54:40;21.20;99.90
51950;DHT22;37974;53.218;6.640;2023-07-20T11:57:06;21.00;99.90
51950;DHT22;37974;53.218;6.640;2023-07-20T11:59:33;20.80;99.70
51950;DHT22;37974;53.218;6.640;2023-07-20T12:02:03;20.60;99.40
51950;DHT22;37974;53.218;6.640;2023-07-20T12:04:30;20.40;99.60
51950;DHT22;37974;53.218;6.640;2023-07-20T12:06:56;20.60;99.80
51950;DHT22;37974;53.218;6.640;2023-07-20T12:09:22;20.70;99.90
51950;DHT22;37974;53.218;6.640;2023-07-20T12:11:49;20.70;99.90
51950;DHT22;37974;53.218;6.640;2023-07-20T12:14:15;20.80;99.90
51950;DHT22;37974;53.218;6.640;2023-07-20T12:16:41;21.10;99.90
51950;DHT22;37974;53.218;6.640;2023-07-20T12:19:09;21.40;99.90
51950;DHT22;37974;53.218;6.640;2023-07-20T12:21:37;21.40;99.80
51950;DHT22;37974;53.218;6.640;2023-07-20T12:24:03;21.30;99.30
51950;DHT22;37974;53.218;6.640;2023-07-20T12:26:30;21.10;99.10
51950;DHT22;37974;53.218;6.640;2023-07-20T12:28:57;20.90;99.30
51950;DHT22;37974;53.218;6.640;2023-07-20T12:31:24;20.70;99.40
51950;DHT22;37974;53.218;6.640;2023-07-20T12:33:51;20.60;99.50
51950;DHT22;37974;53.218;6.640;2023-07-20T12:36:17;20.60;99.90
51950;DHT22;37974;53.218;6.640;2023-07-20T12:38:44;20.70;99.90
51950;DHT22;37974;53.218;6.640;2023-07-20T12:41:11;20.90;99.90
51950;DHT22;37974;53.218;6.640;2023-07-20T12:43:41;21.00;99.70
51950;DHT22;37974;53.218;6.640;2023-07-20T12:46:07;21.20;99.90
51950;DHT22;37974;53.218;6.640;2023-07-20T12:48:34;21.20;99.90
51950;DHT22;37974;53.218;6.640;2023-07-20T12:51:00;21.30;99.90
51950;DHT22;37974;53.218;6.640;2023-07-20T12:53:26;21.20;99.80
51950;DHT22;37974;53.218;6.640;2023-07-20T12:55:52;21.00;99.90
51950;DHT22;37974;53.218;6.640;2023-07-20T12:58:18;20.90;99.80
51950;DHT22;37974;53.218;6.640;2023-07-20T13:00:44;20.70;99.90
51950;DHT22;37974;53.218;6.640;2023-07-20T13:03:09;20.50;99.90
51950;DHT22;37974;53.218;6.640;2023-07-20T13:05:35;20.40;99.90
51950;DHT22;37974;53.218;6.640;2023-07-20T13:08:02;20.30;99.90
51950;DHT22;37974;53.218;6.640;2023-07-20T13:10:28;20.30;99.90
51950;DHT22;37974;53.218;6.640;2023-07-20T13:12:54;20.30;99.90
51950;DHT22;37974;53.218;6.640;2023-07-20T13:15:20;20.40;99.90
51950;DHT22;37974;53.218;6.640;2023-07-20T13:17:46;20.50;99.90
51950;DHT22;37974;53.218;6.640;2023-07-20T13:20:12;20.60;99.90
51950;DHT22;37974;53.218;6.640;2023-07-20T13:22:40;20.80;99.90
51950;DHT22;37974;53.218;6.640;2023-07-20T13:25:06;21.10;99.90
51950;DHT22;37974;53.218;6.640;2023-07-20T13:27:32;21.40;99.90
51950;DHT22;37974;53.218;6.640;2023-07-20T13:29:59;21.50;99.90
51950;DHT22;37974;53.218;6.640;2023-07-20T13:32:26;21.40;99.90
51950;DHT22;37974;53.218;6.640;2023-07-20T13:34:52;21.30;99.90
51950;DHT22;37974;53.218;6.640;2023-07-20T13:37:18;21.30;99.90
51950;DHT22;37974;53.218;6.640;2023-07-20T13:39:44;21.10;99.90
51950;DHT22;37974;53.218;6.640;2023-07-20T13:42:10;20.80;99.90
51950;DHT22;37974;53.218;6.640;2023-07-20T13:44:37;20.70;99.90
51950;DHT22;37974;53.218;6.640;2023-07-20T13:47:03;20.50;99.90
51950;DHT22;37974;53.218;6.640;2023-07-20T13:49:31;20.30;99.90
51950;DHT22;37974;53.218;6.640;2023-07-20T13:51:58;20.30;99.90
51950;DHT22;37974;53.218;6.640;2023-07-20T13:54:24;20.40;99.90
51950;DHT22;37974;53.218;6.640;2023-07-20T13:56:50;20.70;99.90
51950;DHT22;37974;53.218;6.640;2023-07-20T13:59:17;20.80;99.90
51950;DHT22;37974;53.218;6.640;2023-07-20T14:01:44;21.10;99.90
51950;DHT22;37974;53.218;6.640;2023-07-20T14:04:09;21.40;99.90
51950;DHT22;37974;53.218;6.640;2023-07-20T14:06:35;21.50;99.90
51950;DHT22;37974;53.218;6.640;2023-07-20T14:09:02;21.50;99.90
51950;DHT22;37974;53.218;6.640;2023-07-20T14:11:29;21.60;99.90
51950;DHT22;37974;53.218;6.640;2023-07-20T14:13:54;21.50;99.90
51950;DHT22;37974;53.218;6.640;2023-07-20T14:16:21;21.50;99.90
51950;DHT22;37974;53.218;6.640;2023-07-20T14:18:48;21.40;99.90
51950;DHT22;37974;53.218;6.640;2023-07-20T14:21:19;21.40;99.90
51950;DHT22;37974;53.218;6.640;2023-07-20T14:23:46;21.30;99.90
51950;DHT22;37974;53.218;6.640;2023-07-20T14:26:12;21.30;99.90
51950;DHT22;37974;53.218;6.640;2023-07-20T14:28:38;21.40;99.90
51950;DHT22;37974;53.218;6.640;2023-07-20T14:31:04;21.50;99.90
51950;DHT22;37974;53.218;6.640;2023-07-20T14:33:31;21.50;99.90
51950;DHT22;37974;53.218;6.640;2023-07-20T14:35:58;21.60;99.90
51950;DHT22;37974;53.218;6.640;2023-07-20T14:38:24;21.70;99.90
51950;DHT22;37974;53.218;6.640;2023-07-20T14:40:49;21.90;99.90
51950;DHT22;37974;53.218;6.640;2023-07-20T14:43:15;22.10;99.90
51950;DHT22;37974;53.218;6.640;2023-07-20T14:45:41;22.10;99.90
51950;DHT22;37974;53.218;6.640;2023-07-20T14:48:07;22.30;99.90
51950;DHT22;37974;53.218;6.640;2023-07-20T14:50:34;22.30;99.90
51950;DHT22;37974;53.218;6.640;2023-07-20T14:53:00;22.20;99.90
51950;DHT22;37974;53.218;6.640;2023-07-20T14:55:26;22.10;99.90
51950;DHT22;37974;53.218;6.640;2023-07-20T14:57:52;22.00;99.90
51950;DHT22;37974;53.218;6.640;2023-07-20T15:00:18;22.10;99.90
51950;DHT22;37974;53.218;6.640;2023-07-20T15:02:44;22.00;99.90
51950;DHT22;37974;53.218;6.640;2023-07-20T15:05:10;21.70;99.90
51950;DHT22;37974;53.218;6.640;2023-07-20T15:07:36;21.60;99.90
51950;DHT22;37974;53.218;6.640;2023-07-20T15:10:04;21.40;99.90
51950;DHT22;37974;53.218;6.640;2023-07-20T15:12:30;21.40;99.90
51950;DHT22;37974;53.218;6.640;2023-07-20T15:17:29;21.50;99.90
51950;DHT22;37974;53.218;6.640;2023-07-20T15:19:55;21.60;99.90
51950;DHT22;37974;53.218;6.640;2023-07-20T15:22:21;21.90;99.90
51950;DHT22;37974;53.218;6.640;2023-07-20T15:24:47;21.90;99.90
51950;DHT22;37974;53.218;6.640;2023-07-20T15:27:13;21.70;99.90
51950;DHT22;37974;53.218;6.640;2023-07-20T15:29:39;21.50;99.90
51950;DHT22;37974;53.218;6.640;2023-07-20T15:32:05;21.40;99.90
51950;DHT22;37974;53.218;6.640;2023-07-20T15:34:32;21.20;99.90
51950;DHT22;37974;53.218;6.640;2023-07-20T15:36:57;21.10;99.90
51950;DHT22;37974;53.218;6.640;2023-07-20T15:39:23;21.00;99.90
51950;DHT22;37974;53.218;6.640;2023-07-20T15:41:50;20.90;99.90
51950;DHT22;37974;53.218;6.640;2023-07-20T15:44:16;20.80;99.90
51950;DHT22;37974;53.218;6.640;2023-07-20T15:49:09;20.50;99.90
51950;DHT22;37974;53.218;6.640;2023-07-20T15:51:35;20.40;99.90
51950;DHT22;37974;53.218;6.640;2023-07-20T15:54:02;20.40;99.90
51950;DHT22;37974;53.218;6.640;2023-07-20T15:56:28;20.40;99.90
51950;DHT22;37974;53.218;6.640;2023-07-20T15:58:54;20.40;99.90
51950;DHT22;37974;53.218;6.640;2023-07-20T16:01:20;20.50;99.90
51950;DHT22;37974;53.218;6.640;2023-07-20T16:03:45;20.70;99.90
51950;DHT22;37974;53.218;6.640;2023-07-20T16:06:11;21.10;99.90
51950;DHT22;37974;53.218;6.640;2023-07-20T16:08:37;21.40;99.90
51950;DHT22;37974;53.218;6.640;2023-07-20T16:11:03;21.30;99.90
51950;DHT22;37974;53.218;6.640;2023-07-20T16:13:29;21.20;99.90
51950;DHT22;37974;53.218;6.640;2023-07-20T16:15:54;21.10;99.90
51950;DHT22;37974;53.218;6.640;2023-07-20T16:18:21;21.00;99.90
51950;DHT22;37974;53.218;6.640;2023-07-20T16:20:47;21.00;99.90
51950;DHT22;37974;53.218;6.640;2023-07-20T16:23:13;20.90;99.90
51950;DHT22;37974;53.218;6.640;2023-07-20T16:25:38;20.90;99.90
51950;DHT22;37974;53.218;6.640;2023-07-20T16:28:04;20.80;99.90
51950;DHT22;37974;53.218;6.640;2023-07-20T16:30:31;20.70;99.90
51950;DHT22;37974;53.218;6.640;2023-07-20T16:32:57;20.60;99.90
51950;DHT22;37974;53.218;6.640;2023-07-20T16:35:23;20.60;99.90
51950;DHT22;37974;53.218;6.640;2023-07-20T16:37:48;20.50;99.90
51950;DHT22;37974;53.218;6.640;2023-07-20T16:40:15;20.50;99.90
51950;DHT22;37974;53.218;6.640;2023-07-20T16:42:41;20.60;99.90
51950;DHT22;37974;53.218;6.640;2023-07-20T16:45:08;20.70;99.90
51950;DHT22;37974;53.218;6.640;2023-07-20T16:47:34;20.70;99.90
51950;DHT22;37974;53.218;6.640;2023-07-20T16:50:00;20.70;99.90
51950;DHT22;37974;53.218;6.640;2023-07-20T16:52:27;20.70;99.90
51950;DHT22;37974;53.218;6.640;2023-07-20T16:54:53;20.90;99.90
51950;DHT22;37974;53.218;6.640;2023-07-20T16:57:20;21.00;99.90
51950;DHT22;37974;53.218;6.640;2023-07-20T16:59:47;21.00;99.90
51950;DHT22;37974;53.218;6.640;2023-07-20T17:02:12;20.90;99.90
51950;DHT22;37974;53.218;6.640;2023-07-20T17:04:38;21.20;99.90
51950;DHT22;37974;53.218;6.640;2023-07-20T17:07:04;21.30;99.90
51950;DHT22;37974;53.218;6.640;2023-07-20T17:09:30;21.40;99.90
51950;DHT22;37974;53.218;6.640;2023-07-20T17:12:00;21.50;99.90
51950;DHT22;37974;53.218;6.640;2023-07-20T17:14:26;21.60;99.90
51950;DHT22;37974;53.218;6.640;2023-07-20T17:16:55;22.00;99.90
51950;DHT22;37974;53.218;6.640;2023-07-20T17:19:21;22.30;99.00
51950;DHT22;37974;53.218;6.640;2023-07-20T17:21:46;22.50;99.30
51950;DHT22;37974;53.218;6.640;2023-07-20T17:24:12;23.00;98.50
51950;DHT22;37974;53.218;6.640;2023-07-20T17:26:39;23.80;97.60
51950;DHT22;37974;53.218;6.640;2023-07-20T17:29:04;24.50;96.50
51950;DHT22;37974;53.218;6.640;2023-07-20T17:31:30;25.10;94.90
51950;DHT22;37974;53.218;6.640;2023-07-20T17:33:56;25.00;93.50
51950;DHT22;37974;53.218;6.640;2023-07-20T17:36:22;25.00;93.60
51950;DHT22;37974;53.218;6.640;2023-07-20T17:38:48;25.10;93.30
51950;DHT22;37974;53.218;6.640;2023-07-20T17:41:14;25.20;92.90
51950;DHT22;37974;53.218;6.640;2023-07-20T17:43:40;25.20;92.10
51950;DHT22;37974;53.218;6.640;2023-07-20T17:46:06;25.40;92.10